createdAt,value
2023-01-19T00:00:49.930Z,99463.97
2023-01-19T00:03:17.816Z,99463.66
2023-01-19T00:05:45.005Z,99465.75
2023-01-19T00:08:15.648Z,99476.22
2023-01-19T00:10:44.480Z,99475.56
2023-01-19T00:13:11.437Z,99477.81
2023-01-19T00:15:38.209Z,99476.88
2023-01-19T00:18:05.696Z,99470.44
2023-01-19T00:20:32.806Z,99470.41
2023-01-19T00:23:00.411Z,99470.59
2023-01-19T00:25:28.596Z,99478.63
2023-01-19T00:27:57.028Z,99471.41
2023-01-19T00:30:23.639Z,99469.78
2023-01-19T00:32:50.164Z,99473.16
2023-01-19T00:35:16.895Z,99478.97
2023-01-19T00:37:46.048Z,99481.84
2023-01-19T00:40:13.935Z,99482.81
2023-01-19T00:42:41.663Z,99482.66
2023-01-19T00:45:13.374Z,99482.81
2023-01-19T00:47:40.711Z,99477.84
2023-01-19T00:50:11.797Z,99477.50
2023-01-19T00:52:39.591Z,99477.97
2023-01-19T00:55:07.268Z,99477.66
2023-01-19T00:57:34.478Z,99475.88
2023-01-19T01:00:01.714Z,99477.50
2023-01-19T01:02:28.622Z,99486.69
2023-01-19T01:04:56.649Z,99476.84
2023-01-19T01:07:26.107Z,99481.06
2023-01-19T01:09:52.910Z,99482.81
2023-01-19T01:12:19.681Z,99487.66
2023-01-19T01:14:46.198Z,99473.97
2023-01-19T01:17:14.233Z,99475.59
2023-01-19T01:19:41.583Z,99475.75
2023-01-19T01:22:09.716Z,99474.47
2023-01-19T01:24:36.548Z,99474.63
2023-01-19T01:27:03.264Z,99468.97
2023-01-19T01:29:30.554Z,99472.50
2023-01-19T01:31:57.206Z,99479.75
2023-01-19T01:34:23.996Z,99478.09
2023-01-19T01:36:51.272Z,99486.28
2023-01-19T01:39:18.597Z,99483.72
2023-01-19T01:41:45.550Z,99486.78
2023-01-19T01:44:50.259Z,99488.06
2023-01-19T01:47:36.370Z,99487.09
2023-01-19T01:50:14.995Z,99482.72
2023-01-19T01:53:06.545Z,99485.75
2023-01-19T01:55:46.040Z,99480.00
2023-01-19T01:58:14.817Z,99477.56
2023-01-19T02:01:00.946Z,99475.13
2023-01-19T02:03:29.084Z,99482.22
2023-01-19T02:05:59.484Z,99477.25
2023-01-19T02:08:54.204Z,99475.03
2023-01-19T02:11:39.561Z,99485.88
2023-01-19T02:14:06.546Z,99480.72
2023-01-19T02:16:34.828Z,99484.25
2023-01-19T02:19:03.143Z,99485.50
2023-01-19T02:21:38.310Z,99486.34
2023-01-19T02:24:06.463Z,99476.34
2023-01-19T02:26:42.666Z,99479.06
2023-01-19T02:29:13.108Z,99489.16
2023-01-19T02:31:40.939Z,99484.16
2023-01-19T02:34:13.727Z,99494.78
2023-01-19T02:36:52.128Z,99501.53
2023-01-19T02:39:22.357Z,99487.25
2023-01-19T02:41:54.625Z,99492.56
2023-01-19T02:44:22.882Z,99483.94
2023-01-19T02:46:49.505Z,99489.28
2023-01-19T02:49:16.111Z,99495.34
2023-01-19T02:51:43.947Z,99489.97
2023-01-19T02:54:33.108Z,99489.44
2023-01-19T02:57:17.903Z,99495.00
2023-01-19T03:00:02.499Z,99500.59
2023-01-19T03:02:54.536Z,99498.06
2023-01-19T03:05:34.048Z,99499.63
2023-01-19T03:08:17.251Z,99494.63
2023-01-19T03:11:10.206Z,99499.94
2023-01-19T03:13:43.620Z,99504.34
2023-01-19T03:16:13.995Z,99509.34
2023-01-19T03:18:45.227Z,99502.72
2023-01-19T03:21:14.279Z,99510.94
2023-01-19T03:23:44.652Z,99506.06
2023-01-19T03:26:18.378Z,99503.00
2023-01-19T03:28:47.368Z,99510.00
2023-01-19T03:31:18.096Z,99517.41
2023-01-19T03:33:50.405Z,99511.75
2023-01-19T03:36:24.243Z,99513.72
2023-01-19T03:38:53.271Z,99509.22
2023-01-19T03:41:22.604Z,99503.38
2023-01-19T03:43:51.950Z,99503.06
2023-01-19T03:46:19.873Z,99502.56
2023-01-19T03:48:47.750Z,99505.13
2023-01-19T03:51:16.029Z,99503.69
2023-01-19T03:53:42.995Z,99499.56
2023-01-19T03:56:24.435Z,99499.03
2023-01-19T03:58:51.866Z,99504.59
2023-01-19T04:01:22.726Z,99497.06
2023-01-19T04:03:50.410Z,99500.38
2023-01-19T04:06:18.203Z,99498.75
2023-01-19T04:08:44.853Z,99504.28
2023-01-19T04:11:12.236Z,99505.84
2023-01-19T04:13:39.096Z,99502.19
2023-01-19T04:16:06.444Z,99503.91
2023-01-19T04:18:34.878Z,99496.44
2023-01-19T04:21:03.323Z,99495.94
2023-01-19T04:23:30.111Z,99488.44
2023-01-19T04:26:01.901Z,99502.16
2023-01-19T04:28:28.852Z,99506.19
2023-01-19T04:30:55.412Z,99499.41
2023-01-19T04:33:22.421Z,99496.25
2023-01-19T04:35:50.705Z,99500.34
2023-01-19T04:38:19.689Z,99496.97
2023-01-19T04:40:48.316Z,99502.44
2023-01-19T04:43:15.185Z,99500.97
2023-01-19T04:45:41.695Z,99505.19
2023-01-19T04:48:08.202Z,99501.47
2023-01-19T04:50:34.724Z,99508.38
2023-01-19T04:53:02.482Z,99508.09
2023-01-19T04:55:29.416Z,99507.41
2023-01-19T04:57:56.653Z,99515.63
2023-01-19T05:00:23.513Z,99507.75
2023-01-19T05:02:49.974Z,99506.13
2023-01-19T05:05:17.401Z,99509.34
2023-01-19T05:07:44.444Z,99502.25
2023-01-19T05:10:11.971Z,99492.59
2023-01-19T05:12:38.953Z,99498.19
2023-01-19T05:15:07.721Z,99501.34
2023-01-19T05:17:34.955Z,99496.28
2023-01-19T05:20:03.615Z,99491.38
2023-01-19T05:22:32.124Z,99498.75
2023-01-19T05:24:58.816Z,99508.69
2023-01-19T05:27:25.641Z,99503.66
2023-01-19T05:29:52.100Z,99505.28
2023-01-19T05:32:19.207Z,99505.28
2023-01-19T05:34:46.463Z,99498.94
2023-01-19T05:37:13.875Z,99502.84
2023-01-19T05:39:40.622Z,99498.28
2023-01-19T05:42:07.369Z,99493.66
2023-01-19T05:44:33.956Z,99496.56
2023-01-19T05:47:00.712Z,99501.03
2023-01-19T05:49:27.847Z,99498.56
2023-01-19T05:51:54.316Z,99504.47
2023-01-19T05:54:21.340Z,99504.97
2023-01-19T05:56:47.877Z,99499.94
2023-01-19T05:59:15.257Z,99496.44
2023-01-19T06:01:42.004Z,99500.94
2023-01-19T06:04:09.312Z,99497.53
2023-01-19T06:06:35.920Z,99492.41
2023-01-19T06:09:03.069Z,99495.19
2023-01-19T06:11:29.643Z,99502.97
2023-01-19T06:13:56.719Z,99506.69
2023-01-19T06:16:23.261Z,99513.25
2023-01-19T06:18:50.385Z,99524.06
2023-01-19T06:21:16.991Z,99520.38
2023-01-19T06:23:43.628Z,99523.19
2023-01-19T06:26:10.770Z,99529.34
2023-01-19T06:28:37.648Z,99536.16
2023-01-19T06:31:04.915Z,99536.97
2023-01-19T06:33:31.653Z,99528.97
2023-01-19T06:35:58.120Z,99538.31
2023-01-19T06:38:24.729Z,99538.59
2023-01-19T06:40:58.487Z,99534.34
2023-01-19T06:43:25.913Z,99540.13
2023-01-19T06:45:52.930Z,99533.25
2023-01-19T06:48:19.641Z,99538.84
2023-01-19T06:50:47.570Z,99532.19
2023-01-19T06:53:16.480Z,99550.78
2023-01-19T06:55:44.096Z,99549.31
2023-01-19T06:58:11.506Z,99542.28
2023-01-19T07:00:38.469Z,99544.34
2023-01-19T07:03:08.896Z,99544.34
2023-01-19T07:05:36.406Z,99557.41
2023-01-19T07:08:03.882Z,99541.00
2023-01-19T07:11:26.879Z,99546.25
2023-01-19T07:13:17.415Z,99549.91
2023-01-19T07:15:44.155Z,99557.75
2023-01-19T07:18:10.848Z,99568.84
2023-01-19T07:20:38.063Z,99568.44
2023-01-19T07:23:04.602Z,99574.88
2023-01-19T07:25:31.265Z,99574.28
2023-01-19T07:28:00.791Z,99579.63
2023-01-19T07:30:27.588Z,99575.66
2023-01-19T07:32:54.889Z,99578.81
2023-01-19T07:35:21.953Z,99572.75
2023-01-19T07:37:49.068Z,99574.63
2023-01-19T07:40:15.831Z,99582.25
2023-01-19T07:42:48.563Z,99589.47
2023-01-19T07:45:17.050Z,99592.53
2023-01-19T07:47:51.669Z,99588.47
2023-01-19T07:50:21.211Z,99595.56
2023-01-19T07:52:53.277Z,99604.41
2023-01-19T07:55:21.165Z,99607.75
2023-01-19T07:57:51.448Z,99612.16
2023-01-19T08:00:21.894Z,99606.63
2023-01-19T08:02:51.947Z,99615.84
2023-01-19T08:05:19.640Z,99618.78
2023-01-19T08:07:47.025Z,99622.69
2023-01-19T08:10:14.834Z,99625.88
2023-01-19T08:12:42.480Z,99623.88
2023-01-19T08:15:10.661Z,99627.03
2023-01-19T08:17:37.742Z,99631.84
2023-01-19T08:20:04.960Z,99639.88
2023-01-19T08:22:32.128Z,99635.00
2023-01-19T08:24:59.262Z,99647.03
2023-01-19T08:27:25.743Z,99656.41
2023-01-19T08:29:54.278Z,99647.94
2023-01-19T08:32:20.851Z,99646.97
2023-01-19T08:34:47.993Z,99660.97
2023-01-19T08:37:14.439Z,99664.84
2023-01-19T08:39:40.846Z,99658.44
2023-01-19T08:42:07.493Z,99653.94
2023-01-19T08:44:33.958Z,99654.25
2023-01-19T08:47:00.887Z,99659.94
2023-01-19T08:49:27.750Z,99663.38
2023-01-19T08:51:55.425Z,99657.56
2023-01-19T08:54:23.086Z,99655.78
2023-01-19T08:56:49.600Z,99660.31
2023-01-19T08:59:16.904Z,99660.50
2023-01-19T09:01:43.460Z,99669.94
2023-01-19T09:04:10.314Z,99671.50
2023-01-19T09:06:37.156Z,99672.56
2023-01-19T09:09:03.923Z,99674.31
2023-01-19T09:11:30.888Z,99678.16
2023-01-19T09:13:57.615Z,99675.72
2023-01-19T09:16:26.873Z,99677.06
2023-01-19T09:18:54.086Z,99683.84
2023-01-19T09:21:21.967Z,99682.09
2023-01-19T09:23:49.299Z,99691.25
2023-01-19T09:26:16.553Z,99697.56
2023-01-19T09:28:43.344Z,99699.72
2023-01-19T09:31:09.832Z,99701.56
2023-01-19T09:33:37.151Z,99692.47
2023-01-19T09:36:03.843Z,99692.31
2023-01-19T09:38:32.790Z,99698.56
2023-01-19T09:41:00.501Z,99698.97
2023-01-19T09:43:37.254Z,99701.09
2023-01-19T09:46:12.306Z,99697.28
2023-01-19T09:48:53.386Z,99705.47
2023-01-19T09:51:23.757Z,99708.59
2023-01-19T09:54:13.271Z,99707.69
2023-01-19T09:56:40.479Z,99710.69
2023-01-19T09:59:26.506Z,99709.75
2023-01-19T10:02:02.481Z,99713.78
2023-01-19T10:04:31.025Z,99713.09
2023-01-19T10:07:20.574Z,99716.31
2023-01-19T10:10:06.300Z,99716.13
2023-01-19T10:13:11.988Z,99717.38
2023-01-19T10:15:52.771Z,99714.19
2023-01-19T10:18:51.445Z,99714.22
2023-01-19T10:21:23.101Z,99707.91
2023-01-19T10:24:01.425Z,99715.03
2023-01-19T10:26:39.149Z,99711.47
2023-01-19T10:29:08.438Z,99707.72
2023-01-19T10:31:38.948Z,99711.22
2023-01-19T10:34:05.565Z,99714.75
2023-01-19T10:36:39.196Z,99719.22
2023-01-19T10:39:06.632Z,99712.31
2023-01-19T10:41:50.411Z,99719.75
2023-01-19T10:44:28.919Z,99713.72
2023-01-19T10:46:58.812Z,99723.97
2023-01-19T10:49:27.984Z,99720.47
2023-01-19T10:51:56.691Z,99717.75
2023-01-19T10:54:24.447Z,99728.28
2023-01-19T10:56:54.618Z,99730.59
2023-01-19T10:59:36.804Z,99727.81
2023-01-19T11:02:28.372Z,99732.41
2023-01-19T11:04:57.339Z,99728.53
2023-01-19T11:07:26.671Z,99722.25
2023-01-19T11:10:19.665Z,99731.41
2023-01-19T11:13:08.556Z,99725.50
2023-01-19T11:15:52.049Z,99725.53
2023-01-19T11:18:26.967Z,99725.38
2023-01-19T11:20:56.223Z,99727.53
2023-01-19T11:23:29.387Z,99718.25
2023-01-19T11:25:59.133Z,99727.50
2023-01-19T11:28:32.901Z,99726.88
2023-01-19T11:31:02.436Z,99729.81
2023-01-19T11:33:45.412Z,99729.47
2023-01-19T11:36:26.189Z,99725.03
2023-01-19T11:38:55.382Z,99728.56
2023-01-19T11:41:35.516Z,99722.84
2023-01-19T11:44:25.906Z,99725.47
2023-01-19T11:47:00.960Z,99723.19
2023-01-19T11:49:41.838Z,99730.19
2023-01-19T11:52:20.373Z,99730.97
2023-01-19T11:54:59.565Z,99729.38
2023-01-19T11:57:27.143Z,99730.44
2023-01-19T11:59:54.788Z,99729.41
2023-01-19T12:02:31.953Z,99736.03
2023-01-19T12:05:04.525Z,99733.28
2023-01-19T12:07:35.944Z,99728.00
2023-01-19T12:10:27.987Z,99737.63
2023-01-19T12:12:56.501Z,99730.63
2023-01-19T12:15:38.423Z,99726.97
2023-01-19T12:18:08.393Z,99736.59
2023-01-19T12:20:40.250Z,99732.94
2023-01-19T12:23:13.167Z,99714.72
2023-01-19T12:25:54.858Z,99720.97
2023-01-19T12:28:36.570Z,99717.00
2023-01-19T12:31:04.137Z,99717.47
2023-01-19T12:33:39.894Z,99717.03
2023-01-19T12:36:32.089Z,99720.31
2023-01-19T12:39:14.886Z,99724.78
2023-01-19T12:41:42.784Z,99724.28
2023-01-19T12:44:12.152Z,99721.94
2023-01-19T12:46:43.756Z,99718.00
2023-01-19T12:49:20.818Z,99719.63
2023-01-19T12:51:48.292Z,99728.59
2023-01-19T12:54:32.666Z,99720.63
2023-01-19T12:57:08.166Z,99721.66
2023-01-19T12:59:37.277Z,99720.34
2023-01-19T13:02:47.632Z,99728.22
2023-01-19T13:05:16.521Z,99725.31
2023-01-19T13:08:01.638Z,99731.19
2023-01-19T13:10:59.020Z,99732.69
2023-01-19T13:13:33.375Z,99734.25
2023-01-19T13:16:20.175Z,99730.63
2023-01-19T13:18:53.039Z,99726.63
2023-01-19T13:21:33.090Z,99724.13
2023-01-19T13:24:05.847Z,99730.28
2023-01-19T13:26:39.113Z,99719.34
2023-01-19T13:29:15.594Z,99715.13
2023-01-19T13:31:44.672Z,99715.06
2023-01-19T13:34:18.700Z,99718.94
2023-01-19T13:36:49.841Z,99726.31
2023-01-19T13:39:27.129Z,99734.41
2023-01-19T13:41:59.190Z,99731.09
2023-01-19T13:44:28.730Z,99731.91
2023-01-19T13:46:57.419Z,99729.69
2023-01-19T13:49:35.092Z,99735.84
2023-01-19T13:52:04.623Z,99734.06
2023-01-19T13:54:31.623Z,99738.59
2023-01-19T13:56:58.420Z,99739.59
2023-01-19T13:59:25.112Z,99736.38
2023-01-19T14:01:54.147Z,99748.59
2023-01-19T14:04:33.074Z,99749.56
2023-01-19T14:07:04.117Z,99737.91
2023-01-19T14:09:30.951Z,99749.22
2023-01-19T14:12:17.399Z,99746.53
2023-01-19T14:14:47.153Z,99751.97
2023-01-19T14:17:30.135Z,99749.38
2023-01-19T14:19:58.558Z,99760.22
2023-01-19T14:22:45.285Z,99757.50
2023-01-19T14:25:32.928Z,99754.88
2023-01-19T14:28:28.831Z,99759.63
2023-01-19T14:30:55.328Z,99767.97
2023-01-19T14:33:42.424Z,99763.84
2023-01-19T14:36:25.136Z,99769.81
2023-01-19T14:38:53.820Z,99760.84
2023-01-19T14:41:35.161Z,99756.31
2023-01-19T14:44:03.122Z,99756.44
2023-01-19T14:46:30.202Z,99759.53
2023-01-19T14:49:02.947Z,99771.16
2023-01-19T14:51:31.248Z,99765.22
2023-01-19T14:54:01.475Z,99771.00
2023-01-19T14:56:30.467Z,99769.03
2023-01-19T14:58:58.719Z,99773.44
2023-01-19T15:01:30.827Z,99767.97
2023-01-19T15:03:58.383Z,99780.47
2023-01-19T15:06:26.188Z,99775.69
2023-01-19T15:08:54.145Z,99773.81
2023-01-19T15:11:29.037Z,99770.88
2023-01-19T15:13:57.996Z,99779.03
2023-01-19T15:16:26.691Z,99780.75
2023-01-19T15:18:53.290Z,99780.41
2023-01-19T15:21:23.569Z,99773.13
2023-01-19T15:23:50.434Z,99780.94
2023-01-19T15:26:19.713Z,99790.31
2023-01-19T15:28:49.069Z,99790.88
2023-01-19T15:31:21.965Z,99786.84
2023-01-19T15:33:48.834Z,99791.28
2023-01-19T15:36:19.845Z,99790.97
2023-01-19T15:38:47.686Z,99787.28
2023-01-19T15:41:18.843Z,99795.47
2023-01-19T15:43:46.304Z,99800.88
2023-01-19T15:46:15.798Z,99799.16
2023-01-19T15:48:42.521Z,99804.88
2023-01-19T15:51:14.600Z,99789.53
2023-01-19T15:53:43.246Z,99797.31
2023-01-19T15:56:18.183Z,99801.22
2023-01-19T15:58:45.700Z,99806.97
2023-01-19T16:01:15.345Z,99814.34
2023-01-19T16:03:43.032Z,99812.38
2023-01-19T16:06:09.732Z,99821.44
2023-01-19T16:08:37.841Z,99813.63
2023-01-19T16:11:09.957Z,99823.97
2023-01-19T16:13:37.166Z,99822.22
2023-01-19T16:16:13.588Z,99817.00
2023-01-19T16:18:40.646Z,99819.75
2023-01-19T16:21:07.221Z,99827.28
2023-01-19T16:23:34.370Z,99824.25
2023-01-19T16:26:07.710Z,99823.38
2023-01-19T16:28:37.703Z,99825.38
2023-01-19T16:31:04.665Z,99831.28
2023-01-19T16:33:31.373Z,99834.69
2023-01-19T16:35:57.899Z,99839.25
2023-01-19T16:38:24.816Z,99838.81
2023-01-19T16:40:51.322Z,99843.53
2023-01-19T16:43:18.539Z,99838.66
2023-01-19T16:46:02.701Z,99846.78
2023-01-19T16:48:30.663Z,99846.78
2023-01-19T16:51:05.778Z,99851.56
2023-01-19T16:53:37.182Z,99850.75
2023-01-19T16:56:12.862Z,99860.41
2023-01-19T16:58:40.348Z,99862.06
2023-01-19T17:01:17.786Z,99867.09
2023-01-19T17:03:46.473Z,99869.38
2023-01-19T17:06:16.141Z,99871.78
2023-01-19T17:08:42.925Z,99873.06
2023-01-19T17:11:20.551Z,99877.22
2023-01-19T17:14:00.385Z,99877.22
2023-01-19T17:16:30.306Z,99884.19
2023-01-19T17:19:03.726Z,99888.53
2023-01-19T17:21:33.081Z,99892.50
2023-01-19T17:24:01.232Z,99896.09
2023-01-19T17:26:30.764Z,99901.22
2023-01-19T17:29:09.524Z,99893.22
2023-01-19T17:31:37.343Z,99887.00
2023-01-19T17:34:09.789Z,99896.38
2023-01-19T17:36:38.007Z,99895.91
2023-01-19T17:39:07.888Z,99903.69
2023-01-19T17:41:35.674Z,99904.81
2023-01-19T17:44:03.109Z,99902.25
2023-01-19T17:46:30.727Z,99910.19
2023-01-19T17:49:01.565Z,99915.78
2023-01-19T17:51:29.880Z,99918.38
2023-01-19T17:53:57.565Z,99911.53
2023-01-19T17:56:29.275Z,99911.25
2023-01-19T17:58:56.744Z,99912.09
2023-01-19T18:01:28.641Z,99916.78
2023-01-19T18:03:56.064Z,99912.38
2023-01-19T18:06:22.968Z,99917.72
2023-01-19T18:08:50.737Z,99917.13
2023-01-19T18:11:19.767Z,99917.66
2023-01-19T18:13:48.289Z,99921.22
2023-01-19T18:16:19.176Z,99912.22
2023-01-19T18:18:46.208Z,99923.09
2023-01-19T18:21:14.228Z,99916.97
2023-01-19T18:23:45.474Z,99916.00
2023-01-19T18:26:15.165Z,99913.34
2023-01-19T18:28:41.954Z,99915.28
2023-01-19T18:31:10.946Z,99917.22
2023-01-19T18:33:39.035Z,99918.16
2023-01-19T18:36:06.644Z,99911.06
2023-01-19T18:38:34.294Z,99913.06
2023-01-19T18:41:01.684Z,99926.16
2023-01-19T18:43:29.076Z,99926.03
2023-01-19T18:45:55.714Z,99917.31
2023-01-19T18:48:22.719Z,99925.53
2023-01-19T18:50:49.414Z,99928.59
2023-01-19T18:53:16.824Z,99927.13
2023-01-19T18:55:56.967Z,99925.59
2023-01-19T18:58:24.143Z,99924.81
2023-01-19T19:00:51.101Z,99926.97
2023-01-19T19:03:17.612Z,99925.41
2023-01-19T19:05:44.261Z,99927.06
2023-01-19T19:08:18.633Z,99922.72
2023-01-19T19:10:46.203Z,99921.78
2023-01-19T19:13:15.243Z,99916.47
2023-01-19T19:15:41.829Z,99925.81
2023-01-19T19:18:08.918Z,99918.91
2023-01-19T19:20:39.375Z,99915.56
2023-01-19T19:23:06.315Z,99918.00
2023-01-19T19:25:34.035Z,99917.19
2023-01-19T19:28:01.377Z,99923.63
2023-01-19T19:30:28.232Z,99919.94
2023-01-19T19:32:56.349Z,99926.72
2023-01-19T19:35:23.629Z,99921.72
2023-01-19T19:37:51.335Z,99927.53
2023-01-19T19:40:17.943Z,99932.34
2023-01-19T19:42:45.128Z,99932.84
2023-01-19T19:45:12.275Z,99941.56
2023-01-19T19:47:38.775Z,99941.41
2023-01-19T19:50:05.881Z,99940.84
2023-01-19T19:52:38.240Z,99947.44
2023-01-19T19:55:06.576Z,99954.34
2023-01-19T19:57:33.859Z,99959.41
2023-01-19T20:00:00.562Z,99954.59
2023-01-19T20:02:27.425Z,99959.22
2023-01-19T20:04:54.122Z,99961.66
2023-01-19T20:07:20.637Z,99975.34
2023-01-19T20:09:47.520Z,99971.34
2023-01-19T20:12:14.359Z,99974.59
2023-01-19T20:14:40.804Z,99964.91
2023-01-19T20:17:07.433Z,99971.34
2023-01-19T20:19:33.870Z,99972.97
2023-01-19T20:22:00.660Z,99980.69
2023-01-19T20:24:27.526Z,99981.34
2023-01-19T20:26:56.172Z,99979.06
2023-01-19T20:29:23.116Z,99984.91
2023-01-19T20:31:54.021Z,99985.06
2023-01-19T20:34:23.196Z,99990.59
2023-01-19T20:36:51.507Z,99995.25
2023-01-19T20:39:19.969Z,99988.00
2023-01-19T20:41:49.019Z,99992.84
2023-01-19T20:44:20.158Z,99992.97
2023-01-19T20:46:46.993Z,99988.50
2023-01-19T20:49:14.132Z,100001.75
2023-01-19T20:51:45.018Z,100010.13
2023-01-19T20:54:13.431Z,100008.38
2023-01-19T20:56:41.506Z,100014.97
2023-01-19T20:59:09.967Z,100014.47
2023-01-19T21:01:36.723Z,100018.66
2023-01-19T21:04:03.885Z,100014.31
2023-01-19T21:06:31.152Z,100025.31
2023-01-19T21:08:57.990Z,100031.78
2023-01-19T21:11:24.894Z,100031.41
2023-01-19T21:13:55.554Z,100038.53
2023-01-19T21:16:23.997Z,100035.78
2023-01-19T21:18:51.711Z,100039.66
2023-01-19T21:21:29.756Z,100043.50
2023-01-19T21:23:58.925Z,100048.47
2023-01-19T21:26:25.957Z,100052.00
2023-01-19T21:28:52.731Z,100053.94
2023-01-19T21:31:21.205Z,100057.50
2023-01-19T21:33:49.181Z,100059.28
2023-01-19T21:36:15.712Z,100062.84
2023-01-19T21:38:42.410Z,100075.81
2023-01-19T21:41:12.516Z,100064.69
2023-01-19T21:43:41.521Z,100077.38
2023-01-19T21:46:14.267Z,100068.03
2023-01-19T21:48:41.714Z,100077.41
2023-01-19T21:51:09.292Z,100076.94
2023-01-19T21:53:35.871Z,100079.16
2023-01-19T21:56:02.374Z,100085.16
2023-01-19T21:58:29.522Z,100081.09
2023-01-19T22:01:00.971Z,100085.47
2023-01-19T22:03:28.962Z,100083.75
2023-01-19T22:05:58.333Z,100092.13
2023-01-19T22:08:24.999Z,100087.97
2023-01-19T22:10:51.465Z,100094.09
2023-01-19T22:13:18.228Z,100097.66
2023-01-19T22:15:47.228Z,100089.88
2023-01-19T22:18:13.665Z,100102.00
2023-01-19T22:20:40.227Z,100103.47
2023-01-19T22:23:06.698Z,100107.66
2023-01-19T22:25:33.784Z,100110.56
2023-01-19T22:28:00.591Z,100105.38
2023-01-19T22:30:27.745Z,100110.03
2023-01-19T22:32:54.524Z,100119.25
2023-01-19T22:35:21.234Z,100125.41
2023-01-19T22:37:48.167Z,100118.94
2023-01-19T22:40:15.084Z,100123.47
2023-01-19T22:42:45.804Z,100121.84
2023-01-19T22:45:12.801Z,100128.13
2023-01-19T22:47:39.421Z,100132.81
2023-01-19T22:50:06.521Z,100127.03
2023-01-19T22:52:34.048Z,100131.53
2023-01-19T22:55:00.714Z,100136.03
2023-01-19T22:57:27.456Z,100130.84
2023-01-19T22:59:53.926Z,100138.13
2023-01-19T23:02:21.170Z,100146.84
2023-01-19T23:04:48.169Z,100147.16
2023-01-19T23:07:15.027Z,100154.47
2023-01-19T23:09:41.376Z,100154.63
2023-01-19T23:12:08.096Z,100149.31
2023-01-19T23:14:36.064Z,100157.53
2023-01-19T23:17:02.804Z,100158.56
2023-01-19T23:19:29.281Z,100153.69
2023-01-19T23:21:56.064Z,100154.66
2023-01-19T23:24:22.878Z,100146.41
2023-01-19T23:26:50.614Z,100154.34
2023-01-19T23:29:17.930Z,100148.63
2023-01-19T23:31:47.728Z,100148.47
2023-01-19T23:34:15.430Z,100146.25
2023-01-19T23:36:43.006Z,100149.59
2023-01-19T23:39:18.641Z,100157.00
2023-01-19T23:41:45.777Z,100155.25
2023-01-19T23:44:13.009Z,100162.38
2023-01-19T23:46:39.896Z,100153.81
2023-01-19T23:49:06.637Z,100153.00
2023-01-19T23:51:34.812Z,100152.03
2023-01-19T23:54:01.594Z,100155.59
2023-01-19T23:56:34.203Z,100159.97
2023-01-19T23:59:09.586Z,100163.19
